createdAt,value
2023-04-15T00:01:30.183Z,94121.00
2023-04-15T00:05:30.187Z,94127.00
2023-04-15T00:09:30.699Z,94121.00
2023-04-15T00:13:30.354Z,94117.00
2023-04-15T00:17:30.487Z,94125.00
2023-04-15T00:21:30.704Z,94119.00
2023-04-15T00:25:31.213Z,94109.00
2023-04-15T00:29:30.892Z,94104.00
2023-04-15T00:33:31.200Z,94107.00
2023-04-15T00:37:31.139Z,94106.00
2023-04-15T00:41:31.700Z,94106.00
2023-04-15T00:45:31.715Z,94107.00
2023-04-15T00:49:31.720Z,94100.00
2023-04-15T00:53:31.700Z,94104.00
2023-04-15T00:57:31.815Z,94106.00
2023-04-15T01:01:32.330Z,94107.00
2023-04-15T01:05:32.099Z,94104.00
2023-04-15T01:09:32.265Z,94104.00
2023-04-15T01:13:32.349Z,94106.00
2023-04-15T01:17:32.502Z,94106.00
2023-04-15T01:21:32.686Z,94104.00
2023-04-15T01:25:33.207Z,94106.00
2023-04-15T01:29:32.839Z,94119.00
2023-04-15T01:33:32.991Z,94109.00
2023-04-15T01:37:33.108Z,94106.00
2023-04-15T01:41:33.737Z,94107.00
2023-04-15T01:45:33.760Z,94109.00
2023-04-15T01:49:33.688Z,94107.00
2023-04-15T01:53:33.550Z,94107.00
2023-04-15T01:57:33.697Z,94107.00
2023-04-15T02:01:34.283Z,94106.00
2023-04-15T02:05:34.265Z,94106.00
2023-04-15T02:09:34.221Z,94104.00
2023-04-15T02:13:34.263Z,94106.00
2023-04-15T02:17:34.742Z,94106.00
2023-04-15T02:21:34.730Z,94119.00
2023-04-15T02:25:34.616Z,94117.00
2023-04-15T02:29:35.225Z,94106.00
2023-04-15T02:33:34.896Z,94104.00
2023-04-15T02:37:35.232Z,94104.00
2023-04-15T02:41:35.245Z,94104.00
2023-04-15T02:45:35.756Z,94100.00
2023-04-15T02:49:35.753Z,94104.00
2023-04-15T02:53:35.587Z,94102.00
2023-04-15T02:57:35.746Z,94102.00
2023-04-15T03:01:36.249Z,94102.00
2023-04-15T03:05:36.246Z,94102.00
2023-04-15T03:09:36.042Z,94102.00
2023-04-15T03:13:36.315Z,94107.00
2023-04-15T03:17:36.768Z,94106.00
2023-04-15T03:21:36.406Z,94098.00
2023-04-15T03:25:36.773Z,94100.00
2023-04-15T03:29:36.701Z,94100.00
2023-04-15T03:33:37.262Z,94104.00
2023-04-15T03:37:37.271Z,94102.00
2023-04-15T03:41:37.092Z,94102.00
2023-04-15T03:45:37.254Z,94107.00
2023-04-15T03:49:37.370Z,94102.00
2023-04-15T03:53:37.784Z,94104.00
2023-04-15T03:57:37.774Z,94106.00
2023-04-15T04:01:37.831Z,94106.00
2023-04-15T04:05:38.303Z,94107.00
2023-04-15T04:09:37.961Z,94117.00
2023-04-15T04:13:38.083Z,94109.00
2023-04-15T04:17:38.261Z,94107.00
2023-04-15T04:21:38.344Z,94117.00
2023-04-15T04:25:38.796Z,94121.00
2023-04-15T04:29:38.565Z,94117.00
2023-04-15T04:33:38.762Z,94123.00
2023-04-15T04:37:39.274Z,94129.00
2023-04-15T04:41:38.892Z,94129.00
2023-04-15T04:45:39.320Z,94137.00
2023-04-15T04:49:39.156Z,94141.00
2023-04-15T04:53:39.271Z,94141.00
2023-04-15T04:57:39.790Z,94139.00
2023-04-15T05:01:39.858Z,94141.00
2023-04-15T05:05:39.650Z,94147.00
2023-04-15T05:12:31.500Z,94141.00
2023-04-15T05:16:31.479Z,94139.00
2023-04-15T05:20:31.327Z,94143.00
2023-04-15T05:24:31.472Z,94141.00
2023-04-15T05:28:31.577Z,94143.00
2023-04-15T05:32:32.033Z,94149.00
2023-04-15T05:36:31.812Z,94151.00
2023-04-15T05:40:31.975Z,94155.00
2023-04-15T05:44:32.468Z,94155.00
2023-04-15T05:48:32.248Z,94155.00
2023-04-15T05:52:32.501Z,94156.00
2023-04-15T05:56:32.521Z,94164.00
2023-04-15T06:00:32.647Z,94168.00
2023-04-15T06:04:33.066Z,94170.00
2023-04-15T06:08:32.908Z,94178.00
2023-04-15T06:12:33.009Z,94174.00
2023-04-15T06:16:33.125Z,94166.00
2023-04-15T06:20:33.210Z,94170.00
2023-04-15T06:24:33.376Z,94164.00
2023-04-15T06:28:33.494Z,94164.00
2023-04-15T06:32:34.024Z,94164.00
2023-04-15T06:36:34.020Z,94166.00
2023-04-15T06:40:33.775Z,94174.00
2023-04-15T06:44:34.171Z,94174.00
2023-04-15T06:48:33.960Z,94170.00
2023-04-15T06:52:34.537Z,94168.00
2023-04-15T06:56:34.498Z,94174.00
2023-04-15T07:00:34.280Z,94168.00
2023-04-15T07:04:34.629Z,94164.00
2023-04-15T07:08:34.530Z,94162.00
2023-04-15T07:12:35.005Z,94160.00
2023-04-15T07:16:34.727Z,94162.00
2023-04-15T07:20:35.018Z,94166.00
2023-04-15T07:24:34.898Z,94164.00
2023-04-15T07:28:35.020Z,94162.00
2023-04-15T07:32:35.116Z,94156.00
2023-04-15T07:36:35.144Z,94156.00
2023-04-15T07:40:35.529Z,94156.00
2023-04-15T07:44:35.518Z,94153.00
2023-04-15T07:48:36.331Z,94151.00
2023-04-15T07:52:35.568Z,94149.00
2023-04-15T07:56:35.625Z,94147.00
2023-04-15T08:00:35.739Z,94141.00
2023-04-15T08:04:36.182Z,94139.00
2023-04-15T08:08:36.041Z,94137.00
2023-04-15T08:12:36.549Z,94139.00
2023-04-15T08:16:36.321Z,94137.00
2023-04-15T08:20:36.511Z,94135.00
2023-04-15T08:24:36.511Z,94135.00
2023-04-15T08:28:36.536Z,94133.00
2023-04-15T08:32:36.408Z,94133.00
2023-04-15T08:36:36.314Z,94133.00
2023-04-15T08:40:36.522Z,94131.00
2023-04-15T08:44:36.537Z,94129.00
2023-04-15T08:48:36.541Z,94123.00
2023-04-15T08:52:36.147Z,94125.00
2023-04-15T08:56:37.119Z,94121.00
2023-04-15T09:00:36.525Z,94125.00
2023-04-15T09:04:36.074Z,94119.00
2023-04-15T09:08:36.053Z,94117.00
2023-04-15T09:12:35.979Z,94119.00
2023-04-15T09:16:36.104Z,94107.00
2023-04-15T09:20:36.029Z,94106.00
2023-04-15T09:24:35.910Z,94104.00
2023-04-15T09:28:36.074Z,94100.00
2023-04-15T09:32:35.887Z,94096.00
2023-04-15T09:36:36.052Z,94100.00
2023-04-15T09:40:36.563Z,94100.00
2023-04-15T09:44:36.589Z,94098.00
2023-04-15T09:48:36.585Z,94094.00
2023-04-15T09:52:36.434Z,94094.00
2023-04-15T09:56:36.575Z,94092.00
2023-04-15T10:00:37.065Z,94090.00
2023-04-15T10:04:37.046Z,94088.00
2023-04-15T10:08:36.914Z,94086.00
2023-04-15T10:12:37.048Z,94084.00
2023-04-15T10:16:37.563Z,94082.00
2023-04-15T10:20:37.569Z,94084.00
2023-04-15T10:24:37.423Z,94088.00
2023-04-15T10:28:37.584Z,94084.00
2023-04-15T10:32:38.115Z,94088.00
2023-04-15T10:36:38.095Z,94086.00
2023-04-15T10:40:38.107Z,94090.00
2023-04-15T10:44:38.601Z,94092.00
2023-04-15T10:48:38.229Z,94096.00
2023-04-15T10:52:38.594Z,94094.00
2023-04-15T10:56:38.588Z,94090.00
2023-04-15T11:00:38.563Z,94086.00
2023-04-15T11:04:41.039Z,94090.00
2023-04-15T11:08:38.609Z,94088.00
2023-04-15T11:12:39.075Z,94082.00
2023-04-15T11:16:38.587Z,94080.00
2023-04-15T11:20:38.599Z,94080.00
2023-04-15T11:24:38.610Z,94084.00
2023-04-15T11:28:39.044Z,94086.00
2023-04-15T11:32:38.632Z,94086.00
2023-04-15T11:36:38.398Z,94086.00
2023-04-15T11:40:38.583Z,94086.00
2023-04-15T11:44:38.295Z,94084.00
2023-04-15T11:48:38.375Z,94098.00
2023-04-15T11:52:38.601Z,94096.00
2023-04-15T11:56:38.613Z,94104.00
2023-04-15T12:00:38.715Z,94107.00
2023-04-15T12:04:39.046Z,94107.00
2023-04-15T12:08:39.084Z,94107.00
2023-04-15T12:12:38.919Z,94117.00
2023-04-15T12:16:49.789Z,94109.00
2023-04-15T12:20:40.086Z,94125.00
2023-04-15T12:24:38.915Z,94119.00
2023-04-15T12:28:39.114Z,94123.00
2023-04-15T12:32:39.944Z,94129.00
2023-04-15T12:36:39.125Z,94129.00
2023-04-15T12:40:39.103Z,94137.00
2023-04-15T12:44:39.111Z,94139.00
2023-04-15T12:48:39.258Z,94143.00
2023-04-15T12:52:39.634Z,94141.00
2023-04-15T12:56:39.625Z,94147.00
2023-04-15T13:04:58.420Z,94153.00
2023-04-15T13:08:59.034Z,94164.00
2023-04-15T13:12:58.552Z,94168.00
2023-04-15T13:16:59.168Z,94172.00
2023-04-15T13:20:58.791Z,94176.00
2023-04-15T13:24:58.957Z,94182.00
2023-04-15T13:28:59.194Z,94188.00
2023-04-15T13:35:02.859Z,94188.00
2023-04-15T13:39:02.948Z,94194.00
2023-04-15T13:43:02.865Z,94196.00
2023-04-15T13:47:02.891Z,94198.00
2023-04-15T13:51:02.917Z,94205.00
2023-04-15T13:55:18.324Z,94211.00
2023-04-15T13:59:04.403Z,94211.00
2023-04-15T14:03:03.551Z,94213.00
2023-04-15T14:07:05.017Z,94215.00
2023-04-15T14:11:03.396Z,94217.00
2023-04-15T14:15:03.164Z,94221.00
2023-04-15T14:19:03.873Z,94219.00
2023-04-15T14:23:03.370Z,94221.00
2023-04-15T14:27:03.427Z,94227.00
2023-04-15T14:31:03.929Z,94233.00
2023-04-15T14:35:03.647Z,94235.00
2023-04-15T14:39:03.909Z,94245.00
2023-04-15T14:43:03.915Z,94249.00
2023-04-15T14:47:04.426Z,94254.00
2023-04-15T14:51:04.199Z,94260.00
2023-04-15T14:55:04.302Z,94268.00
2023-04-15T14:59:04.500Z,94268.00
2023-04-15T15:03:04.948Z,94276.00
2023-04-15T15:07:04.909Z,94278.00
2023-04-15T15:11:04.813Z,94280.00
2023-04-15T15:15:15.456Z,94288.00
2023-04-15T15:19:06.442Z,94292.00
2023-04-15T15:23:05.415Z,94296.00
2023-04-15T15:27:05.432Z,94305.00
2023-04-15T15:31:05.269Z,94313.00
2023-04-15T15:35:05.402Z,94323.00
2023-04-15T15:39:06.133Z,94331.00
2023-04-15T15:43:05.945Z,94331.00
2023-04-15T15:47:05.950Z,94339.00
2023-04-15T15:51:05.797Z,94349.00
2023-04-15T15:55:06.438Z,94356.00
2023-04-15T15:59:06.618Z,94352.00
2023-04-15T16:03:07.747Z,94362.00
2023-04-15T16:07:06.316Z,94364.00
2023-04-15T16:11:06.372Z,94380.00
2023-04-15T16:15:06.550Z,94378.00
2023-04-15T16:19:06.773Z,94392.00
2023-04-15T16:23:06.744Z,94392.00
2023-04-15T16:27:06.932Z,94397.00
2023-04-15T16:31:06.936Z,94399.00
2023-04-15T16:35:07.426Z,94409.00
2023-04-15T16:39:07.422Z,94417.00
2023-04-15T16:43:07.422Z,94421.00
2023-04-15T16:47:07.921Z,94427.00
2023-04-15T16:51:07.578Z,94435.00
2023-04-15T16:55:07.952Z,94439.00
2023-04-15T16:59:07.936Z,94444.00
2023-04-15T17:03:08.043Z,94444.00
2023-04-15T17:07:08.430Z,94446.00
2023-04-15T17:11:08.146Z,94450.00
2023-04-15T17:15:08.425Z,94452.00
2023-04-15T17:19:08.449Z,94456.00
2023-04-15T17:23:08.486Z,94466.00
2023-04-15T17:27:08.946Z,94474.00
2023-04-15T17:31:08.822Z,94478.00
2023-04-15T17:35:08.932Z,94488.00
2023-04-15T17:39:09.435Z,94499.00
2023-04-15T17:43:09.429Z,94503.00
2023-04-15T17:47:09.490Z,94509.00
2023-04-15T17:51:09.361Z,94513.00
2023-04-15T17:55:09.519Z,94525.00
2023-04-15T17:59:09.627Z,94533.00
2023-04-15T18:03:10.087Z,94537.00
2023-04-15T18:07:09.845Z,94545.00
2023-04-15T18:11:09.964Z,94550.00
2023-04-15T18:15:10.435Z,94558.00
2023-04-15T18:19:10.196Z,94564.00
2023-04-15T18:23:10.359Z,94572.00
2023-04-15T18:27:10.509Z,94578.00
2023-04-15T18:31:10.625Z,94582.00
2023-04-15T18:35:10.971Z,94582.00
2023-04-15T18:39:10.842Z,94588.00
2023-04-15T18:43:11.471Z,94590.00
2023-04-15T18:47:11.083Z,94595.00
2023-04-15T18:51:11.487Z,94601.00
2023-04-15T18:55:11.471Z,94609.00
2023-04-15T18:59:28.801Z,94617.00
2023-04-15T19:03:12.527Z,94631.00
2023-04-15T19:07:11.317Z,94639.00
2023-04-15T19:11:11.484Z,94643.00
2023-04-15T19:15:11.457Z,94648.00
2023-04-15T19:19:11.434Z,94662.00
2023-04-15T19:23:12.008Z,94670.00
2023-04-15T19:27:11.695Z,94674.00
2023-04-15T19:31:11.860Z,94678.00
2023-04-15T19:35:11.956Z,94680.00
2023-04-15T19:39:12.509Z,94678.00
2023-04-15T19:43:12.495Z,94682.00
2023-04-15T19:47:12.251Z,94690.00
2023-04-15T19:51:12.491Z,94690.00
2023-04-15T19:55:12.507Z,94699.00
2023-04-15T19:59:12.573Z,94705.00
2023-04-15T20:03:13.181Z,94707.00
2023-04-15T20:07:12.803Z,94715.00
2023-04-15T20:11:13.068Z,94713.00
2023-04-15T20:15:13.510Z,94717.00
2023-04-15T20:19:13.097Z,94725.00
2023-04-15T20:23:13.258Z,94727.00
2023-04-15T20:27:13.526Z,94729.00
2023-04-15T20:31:13.487Z,94733.00
2023-04-15T20:35:14.008Z,94739.00
2023-04-15T20:39:14.002Z,94737.00
2023-04-15T20:43:13.752Z,94743.00
2023-04-15T20:47:14.012Z,94745.00
2023-04-15T20:51:14.024Z,94747.00
2023-04-15T20:55:14.057Z,94752.00
2023-04-15T20:59:14.510Z,94754.00
2023-04-15T21:03:14.408Z,94758.00
2023-04-15T21:07:14.389Z,94766.00
2023-04-15T21:11:21.847Z,94764.00
2023-04-15T21:15:15.523Z,94766.00
2023-04-15T21:19:14.515Z,94768.00
2023-04-15T21:23:14.368Z,94766.00
2023-04-15T21:27:14.384Z,94776.00
2023-04-15T21:31:14.374Z,94780.00
2023-04-15T21:35:14.439Z,94782.00
2023-04-15T21:39:14.512Z,94784.00
2023-04-15T21:43:15.040Z,94784.00
2023-04-15T21:47:15.052Z,94786.00
2023-04-15T21:51:15.059Z,94786.00
2023-04-15T21:55:15.023Z,94790.00
2023-04-15T21:59:14.940Z,94790.00
2023-04-15T22:03:15.118Z,94792.00
2023-04-15T22:07:15.532Z,94795.00
2023-04-15T22:11:15.542Z,94799.00
2023-04-15T22:15:15.235Z,94807.00
2023-04-15T22:19:15.343Z,94807.00
2023-04-15T22:23:17.225Z,94807.00
2023-04-15T22:27:15.553Z,94811.00
2023-04-15T22:31:15.574Z,94813.00
2023-04-15T22:35:16.036Z,94823.00
2023-04-15T22:39:15.743Z,94825.00
2023-04-15T22:43:16.037Z,94829.00
2023-04-15T22:47:16.057Z,94837.00
2023-04-15T22:51:16.027Z,94839.00
2023-04-15T22:55:16.091Z,94837.00
2023-04-15T22:59:16.126Z,94839.00
2023-04-15T23:03:16.356Z,94842.00
2023-04-15T23:07:16.582Z,94842.00
2023-04-15T23:11:16.557Z,94842.00
2023-04-15T23:15:16.491Z,94844.00
2023-04-15T23:19:17.085Z,94844.00
2023-04-15T23:23:16.699Z,94846.00
2023-04-15T23:27:17.065Z,94848.00
2023-04-15T23:31:16.888Z,94858.00
2023-04-15T23:35:16.974Z,94856.00
2023-04-15T23:39:17.051Z,94856.00
2023-04-15T23:43:17.150Z,94856.00
2023-04-15T23:47:17.598Z,94854.00
2023-04-15T23:51:17.564Z,94858.00
2023-04-15T23:55:17.372Z,94856.00
2023-04-15T23:59:17.566Z,94856.00
